Terminal Aerodrome Forecast
Issued by NWS Boston, MA

Home | Current Version | Previous Version | Text Only | Print | Product List | Glossary On
Versions: 1 2 3 4 5 6 7 8 9 10 11 12 13 14 15 16 17 18 19 20 21 22 23 24 25 26 27 28 29 30 31 32 33 34 35 36 37 38 39
000
FTUS41 KBOX 080545
TAFORH
TAF
KORH 080545Z 0806/0906 24012KT P6SM FEW020 SCT250
     FM081000 24011KT P6SM FEW020 SCT140
     FM081400 26008KT P6SM OVC050
     FM081600 26008KT P6SM VCTS OVC050CB
     FM081700 26008KT P6SM VCTS OVC025CB
     FM081800 26009KT P6SM OVC025=

USA.gov is the U.S. government's official web portal to all federal, state and local government web resources and services.